sensor_id;sensor_type;location;lat;lon;timestamp;pressure;altitude;pressure_sealevel;temperature;humidity
53932;BME280;39844;52.496;13.482;2023-03-04T00:00:08;101662.63;;;2.94;86.62
53932;BME280;39844;52.496;13.482;2023-03-04T00:02:33;101650.44;;;2.93;86.62
53932;BME280;39844;52.496;13.482;2023-03-04T00:04:59;101647.81;;;2.91;86.87
53932;BME280;39844;52.496;13.482;2023-03-04T00:07:24;101653.88;;;2.92;86.96
53932;BME280;39844;52.496;13.482;2023-03-04T00:09:49;101649.50;;;2.91;87.16
53932;BME280;39844;52.496;13.482;2023-03-04T00:12:15;101645.16;;;2.90;87.49
53932;BME280;39844;52.496;13.482;2023-03-04T00:14:40;101648.63;;;2.90;87.44
53932;BME280;39844;52.496;13.482;2023-03-04T00:17:05;101643.34;;;2.87;87.19
53932;BME280;39844;52.496;13.482;2023-03-04T00:19:31;101641.59;;;2.88;87.56
53932;BME280;39844;52.496;13.482;2023-03-04T00:21:56;101635.59;;;2.89;87.33
53932;BME280;39844;52.496;13.482;2023-03-04T00:24:21;101636.56;;;2.91;87.98
53932;BME280;39844;52.496;13.482;2023-03-04T00:26:47;101630.56;;;2.92;87.84
53932;BME280;39844;52.496;13.482;2023-03-04T00:29:12;101624.47;;;2.91;87.70
53932;BME280;39844;52.496;13.482;2023-03-04T00:31:37;101629.72;;;2.93;87.74
53932;BME280;39844;52.496;13.482;2023-03-04T00:34:02;101626.31;;;2.94;87.68
53932;BME280;39844;52.496;13.482;2023-03-04T00:36:28;101632.38;;;2.94;87.76
53932;BME280;39844;52.496;13.482;2023-03-04T00:38:53;101623.75;;;2.95;87.42
53932;BME280;39844;52.496;13.482;2023-03-04T00:41:18;101628.09;;;2.95;87.52
53932;BME280;39844;52.496;13.482;2023-03-04T00:43:44;101631.75;;;3.00;87.83
53932;BME280;39844;52.496;13.482;2023-03-04T00:46:09;101622.19;;;2.99;87.16
53932;BME280;39844;52.496;13.482;2023-03-04T00:48:34;101616.19;;;3.00;87.24
53932;BME280;39844;52.496;13.482;2023-03-04T00:50:59;101620.63;;;3.02;87.38
53932;BME280;39844;52.496;13.482;2023-03-04T00:53:25;101617.28;;;3.05;87.19
53932;BME280;39844;52.496;13.482;2023-03-04T00:55:50;101617.28;;;3.05;86.78
53932;BME280;39844;52.496;13.482;2023-03-04T00:58:16;101611.25;;;3.06;86.45
53932;BME280;39844;52.496;13.482;2023-03-04T01:00:41;101606.06;;;3.06;85.73
53932;BME280;39844;52.496;13.482;2023-03-04T01:03:06;101608.72;;;3.07;86.34
53932;BME280;39844;52.496;13.482;2023-03-04T01:05:32;101611.31;;;3.07;86.11
53932;BME280;39844;52.496;13.482;2023-03-04T01:07:57;101608.78;;;3.09;86.31
53932;BME280;39844;52.496;13.482;2023-03-04T01:10:22;101611.41;;;3.10;85.68
53932;BME280;39844;52.496;13.482;2023-03-04T01:12:47;101609.72;;;3.11;85.60
53932;BME280;39844;52.496;13.482;2023-03-04T01:15:13;101607.13;;;3.11;86.09
53932;BME280;39844;52.496;13.482;2023-03-04T01:17:39;101602.00;;;3.12;86.15
53932;BME280;39844;52.496;13.482;2023-03-04T01:20:06;101587.25;;;3.11;85.29
53932;BME280;39844;52.496;13.482;2023-03-04T01:22:32;101582.03;;;3.10;85.10
53932;BME280;39844;52.496;13.482;2023-03-04T01:24:57;101586.31;;;3.09;85.58
53932;BME280;39844;52.496;13.482;2023-03-04T01:27:22;101569.13;;;3.11;85.49
53932;BME280;39844;52.496;13.482;2023-03-04T01:29:48;101576.94;;;3.13;85.08
53932;BME280;39844;52.496;13.482;2023-03-04T01:32:13;101581.31;;;3.14;85.37
53932;BME280;39844;52.496;13.482;2023-03-04T01:34:38;101572.72;;;3.15;84.96
53932;BME280;39844;52.496;13.482;2023-03-04T01:37:04;101578.00;;;3.18;85.26
53932;BME280;39844;52.496;13.482;2023-03-04T01:39:29;101571.19;;;3.20;84.57
53932;BME280;39844;52.496;13.482;2023-03-04T01:41:54;101573.03;;;3.23;85.15
53932;BME280;39844;52.496;13.482;2023-03-04T01:44:20;101576.59;;;3.26;85.17
53932;BME280;39844;52.496;13.482;2023-03-04T01:46:49;101577.53;;;3.28;84.56
53932;BME280;39844;52.496;13.482;2023-03-04T01:49:16;101578.50;;;3.30;84.32
53932;BME280;39844;52.496;13.482;2023-03-04T01:51:43;101562.09;;;3.31;84.42
53932;BME280;39844;52.496;13.482;2023-03-04T01:54:10;101557.84;;;3.33;84.25
53932;BME280;39844;52.496;13.482;2023-03-04T01:56:37;101561.44;;;3.37;84.14
53932;BME280;39844;52.496;13.482;2023-03-04T02:01:39;101554.72;;;3.42;85.25
53932;BME280;39844;52.496;13.482;2023-03-04T02:04:05;101546.13;;;3.43;84.80
53932;BME280;39844;52.496;13.482;2023-03-04T02:06:31;101541.91;;;3.46;84.60
53932;BME280;39844;52.496;13.482;2023-03-04T02:08:57;101547.22;;;3.49;84.57
53932;BME280;39844;52.496;13.482;2023-03-04T02:11:22;101546.47;;;3.52;84.38
53932;BME280;39844;52.496;13.482;2023-03-04T02:13:48;101536.16;;;3.53;84.12
53932;BME280;39844;52.496;13.482;2023-03-04T02:16:13;101539.72;;;3.57;84.77
53932;BME280;39844;52.496;13.482;2023-03-04T02:18:39;101538.06;;;3.59;84.46
53932;BME280;39844;52.496;13.482;2023-03-04T02:26:43;101539.31;;;3.68;84.78
53932;BME280;39844;52.496;13.482;2023-03-04T02:29:10;101535.09;;;3.72;84.53
53932;BME280;39844;52.496;13.482;2023-03-04T02:31:40;101521.34;;;3.74;84.58
53932;BME280;39844;52.496;13.482;2023-03-04T02:34:16;101509.28;;;3.76;85.12
53932;BME280;39844;52.496;13.482;2023-03-04T02:36:43;101499.03;;;3.79;84.91
53932;BME280;39844;52.496;13.482;2023-03-04T02:41:51;101490.56;;;3.85;84.86
53932;BME280;39844;52.496;13.482;2023-03-04T02:44:28;101485.50;;;3.88;84.91
53932;BME280;39844;52.496;13.482;2023-03-04T02:46:54;101484.59;;;3.88;84.73
53932;BME280;39844;52.496;13.482;2023-03-04T02:49:21;101483.00;;;3.91;84.57
53932;BME280;39844;52.496;13.482;2023-03-04T02:51:50;101485.69;;;3.94;84.57
53932;BME280;39844;52.496;13.482;2023-03-04T02:54:18;101483.16;;;3.96;84.49
53932;BME280;39844;52.496;13.482;2023-03-04T02:56:45;101482.31;;;3.97;84.75
53932;BME280;39844;52.496;13.482;2023-03-04T02:59:10;101478.19;;;4.02;84.49
53932;BME280;39844;52.496;13.482;2023-03-04T03:01:36;101483.41;;;4.02;84.93
53932;BME280;39844;52.496;13.482;2023-03-04T03:04:01;101479.13;;;4.04;84.54
53932;BME280;39844;52.496;13.482;2023-03-04T03:06:26;101481.75;;;4.05;84.82
53932;BME280;39844;52.496;13.482;2023-03-04T03:08:51;101474.03;;;4.07;85.09
53932;BME280;39844;52.496;13.482;2023-03-04T03:11:17;101475.88;;;4.09;85.18
53932;BME280;39844;52.496;13.482;2023-03-04T03:13:42;101481.09;;;4.11;84.70
53932;BME280;39844;52.496;13.482;2023-03-04T03:16:07;101470.81;;;4.14;84.94
53932;BME280;39844;52.496;13.482;2023-03-04T03:18:33;101476.81;;;4.13;84.86
53932;BME280;39844;52.496;13.482;2023-03-04T03:20:58;101479.50;;;4.14;84.81
53932;BME280;39844;52.496;13.482;2023-03-04T03:23:23;101476.03;;;4.15;85.32
53932;BME280;39844;52.496;13.482;2023-03-04T03:25:48;101474.38;;;4.17;85.04
53932;BME280;39844;52.496;13.482;2023-03-04T03:28:14;101475.25;;;4.18;85.37
53932;BME280;39844;52.496;13.482;2023-03-04T03:30:39;101481.34;;;4.18;85.89
53932;BME280;39844;52.496;13.482;2023-03-04T03:33:04;101466.66;;;4.19;86.06
53932;BME280;39844;52.496;13.482;2023-03-04T03:35:29;101465.75;;;4.18;86.06
53932;BME280;39844;52.496;13.482;2023-03-04T03:37:55;101464.06;;;4.19;86.23
53932;BME280;39844;52.496;13.482;2023-03-04T03:40:20;101457.97;;;4.18;86.59
53932;BME280;39844;52.496;13.482;2023-03-04T03:42:45;101457.06;;;4.18;86.28
53932;BME280;39844;52.496;13.482;2023-03-04T03:45:11;101451.06;;;4.19;86.87
53932;BME280;39844;52.496;13.482;2023-03-04T03:47:36;101444.97;;;4.18;86.80
53932;BME280;39844;52.496;13.482;2023-03-04T03:50:02;101450.19;;;4.18;86.96
53932;BME280;39844;52.496;13.482;2023-03-04T03:52:28;101446.75;;;4.19;86.99
53932;BME280;39844;52.496;13.482;2023-03-04T03:54:53;101442.41;;;4.20;86.99
53932;BME280;39844;52.496;13.482;2023-03-04T03:57:18;101438.13;;;4.20;86.73
53932;BME280;39844;52.496;13.482;2023-03-04T03:59:43;101439.91;;;4.21;86.66
53932;BME280;39844;52.496;13.482;2023-03-04T04:02:09;101438.19;;;4.22;86.98
53932;BME280;39844;52.496;13.482;2023-03-04T04:04:34;101436.50;;;4.24;86.83
53932;BME280;39844;52.496;13.482;2023-03-04T04:06:59;101436.50;;;4.24;86.84
53932;BME280;39844;52.496;13.482;2023-03-04T04:09:25;101440.84;;;4.25;86.99
53932;BME280;39844;52.496;13.482;2023-03-04T04:11:50;101440.84;;;4.25;87.10
53932;BME280;39844;52.496;13.482;2023-03-04T04:14:15;101440.03;;;4.26;86.96
53932;BME280;39844;52.496;13.482;2023-03-04T04:16:41;101441.81;;;4.27;87.02
53932;BME280;39844;52.496;13.482;2023-03-04T04:19:06;101434.88;;;4.27;86.92
53932;BME280;39844;52.496;13.482;2023-03-04T04:21:32;101436.66;;;4.28;86.51
53932;BME280;39844;52.496;13.482;2023-03-04T04:23:57;101432.34;;;4.29;86.62
53932;BME280;39844;52.496;13.482;2023-03-04T04:26:22;101429.84;;;4.32;86.92
53932;BME280;39844;52.496;13.482;2023-03-04T04:28:48;101419.47;;;4.32;86.59
53932;BME280;39844;52.496;13.482;2023-03-04T04:31:13;101433.41;;;4.35;86.91
53932;BME280;39844;52.496;13.482;2023-03-04T04:33:38;101429.09;;;4.36;86.57
53932;BME280;39844;52.496;13.482;2023-03-04T04:36:04;101428.31;;;4.38;86.55
53932;BME280;39844;52.496;13.482;2023-03-04T04:38:29;101420.56;;;4.40;86.26
53932;BME280;39844;52.496;13.482;2023-03-04T04:40:56;101421.44;;;4.40;86.24
53932;BME280;39844;52.496;13.482;2023-03-04T04:43:22;101421.41;;;4.39;86.15
53932;BME280;39844;52.496;13.482;2023-03-04T04:45:47;101417.88;;;4.37;86.59
53932;BME280;39844;52.496;13.482;2023-03-04T04:48:12;101424.78;;;4.36;86.47
53932;BME280;39844;52.496;13.482;2023-03-04T04:50:38;101416.94;;;4.35;86.56
53932;BME280;39844;52.496;13.482;2023-03-04T04:53:03;101421.28;;;4.34;86.77
53932;BME280;39844;52.496;13.482;2023-03-04T04:55:28;101417.72;;;4.32;86.70
53932;BME280;39844;52.496;13.482;2023-03-04T04:57:54;101415.09;;;4.31;86.84
53932;BME280;39844;52.496;13.482;2023-03-04T05:00:19;101409.00;;;4.30;87.25
53932;BME280;39844;52.496;13.482;2023-03-04T05:02:44;101407.25;;;4.29;87.14
53932;BME280;39844;52.496;13.482;2023-03-04T05:05:10;101408.97;;;4.29;87.31
53932;BME280;39844;52.496;13.482;2023-03-04T05:07:35;101407.25;;;4.29;87.04
53932;BME280;39844;52.496;13.482;2023-03-04T05:10:01;101405.47;;;4.28;87.51
53932;BME280;39844;52.496;13.482;2023-03-04T05:12:26;101412.44;;;4.29;88.06
53932;BME280;39844;52.496;13.482;2023-03-04T05:14:51;101407.25;;;4.29;88.02
53932;BME280;39844;52.496;13.482;2023-03-04T05:17:16;101413.31;;;4.30;88.28
53932;BME280;39844;52.496;13.482;2023-03-04T05:19:42;101410.72;;;4.30;88.15
53932;BME280;39844;52.496;13.482;2023-03-04T05:22:07;101406.47;;;4.32;88.04
53932;BME280;39844;52.496;13.482;2023-03-04T05:24:33;101401.28;;;4.32;88.26
53932;BME280;39844;52.496;13.482;2023-03-04T05:26:58;101403.94;;;4.35;88.13
53932;BME280;39844;52.496;13.482;2023-03-04T05:29:23;101405.72;;;4.36;88.04
53932;BME280;39844;52.496;13.482;2023-03-04T05:31:49;101396.25;;;4.38;88.09
53932;BME280;39844;52.496;13.482;2023-03-04T05:34:14;101401.50;;;4.39;88.17
53932;BME280;39844;52.496;13.482;2023-03-04T05:36:40;101406.75;;;4.41;88.03
53932;BME280;39844;52.496;13.482;2023-03-04T05:39:05;101401.59;;;4.42;87.67
53932;BME280;39844;52.496;13.482;2023-03-04T05:41:30;101404.25;;;4.44;87.68
53932;BME280;39844;52.496;13.482;2023-03-04T05:43:56;101399.16;;;4.47;87.59
53932;BME280;39844;52.496;13.482;2023-03-04T05:46:21;101402.69;;;4.49;87.58
53932;BME280;39844;52.496;13.482;2023-03-04T05:48:46;101408.78;;;4.51;87.60
53932;BME280;39844;52.496;13.482;2023-03-04T05:51:12;101404.59;;;4.55;87.54
53932;BME280;39844;52.496;13.482;2023-03-04T05:53:37;101397.66;;;4.55;87.19
53932;BME280;39844;52.496;13.482;2023-03-04T05:56:10;101396.81;;;4.56;87.38
53932;BME280;39844;52.496;13.482;2023-03-04T05:58:35;101394.22;;;4.56;87.53
53932;BME280;39844;52.496;13.482;2023-03-04T06:01:01;101396.81;;;4.56;87.90
53932;BME280;39844;52.496;13.482;2023-03-04T06:03:26;101405.50;;;4.57;88.54
53932;BME280;39844;52.496;13.482;2023-03-04T06:05:52;101402.91;;;4.57;88.67
53932;BME280;39844;52.496;13.482;2023-03-04T06:08:18;101391.63;;;4.56;88.81
53932;BME280;39844;52.496;13.482;2023-03-04T06:10:43;101400.31;;;4.57;89.19
53932;BME280;39844;52.496;13.482;2023-03-04T06:13:09;101395.13;;;4.57;89.43
53932;BME280;39844;52.496;13.482;2023-03-04T06:15:35;101396.81;;;4.56;89.81
53932;BME280;39844;52.496;13.482;2023-03-04T06:18:01;101410.75;;;4.58;90.09
53932;BME280;39844;52.496;13.482;2023-03-04T06:20:26;101397.75;;;4.58;90.54
53932;BME280;39844;52.496;13.482;2023-03-04T06:22:52;101402.13;;;4.59;90.65
53932;BME280;39844;52.496;13.482;2023-03-04T06:25:17;101401.31;;;4.60;90.60
53932;BME280;39844;52.496;13.482;2023-03-04T06:27:43;101400.44;;;4.61;90.57
53932;BME280;39844;52.496;13.482;2023-03-04T06:30:08;101402.22;;;4.62;90.57
53932;BME280;39844;52.496;13.482;2023-03-04T06:32:34;101403.16;;;4.64;91.08
53932;BME280;39844;52.496;13.482;2023-03-04T06:34:59;101401.44;;;4.65;91.16
53932;BME280;39844;52.496;13.482;2023-03-04T06:37:24;101406.66;;;4.66;91.36
53932;BME280;39844;52.496;13.482;2023-03-04T06:39:50;101404.06;;;4.66;91.88
53932;BME280;39844;52.496;13.482;2023-03-04T06:42:15;101406.66;;;4.66;92.02
53932;BME280;39844;52.496;13.482;2023-03-04T06:44:40;101409.28;;;4.66;92.68
53932;BME280;39844;52.496;13.482;2023-03-04T06:47:06;101411.06;;;4.67;93.64
53932;BME280;39844;52.496;13.482;2023-03-04T06:49:31;101411.94;;;4.68;94.05
53932;BME280;39844;52.496;13.482;2023-03-04T06:51:57;101410.16;;;4.67;94.45
53932;BME280;39844;52.496;13.482;2023-03-04T06:54:22;101406.75;;;4.68;94.79
53932;BME280;39844;52.496;13.482;2023-03-04T06:56:48;101403.28;;;4.69;95.40
53932;BME280;39844;52.496;13.482;2023-03-04T06:59:13;101409.38;;;4.69;95.96
53932;BME280;39844;52.496;13.482;2023-03-04T07:01:38;101409.34;;;4.68;96.22
53932;BME280;39844;52.496;13.482;2023-03-04T07:04:04;101408.44;;;4.67;96.40
53932;BME280;39844;52.496;13.482;2023-03-04T07:06:29;101401.47;;;4.66;96.75
53932;BME280;39844;52.496;13.482;2023-03-04T07:08:55;101412.75;;;4.67;97.31
53932;BME280;39844;52.496;13.482;2023-03-04T07:11:21;101410.16;;;4.67;97.42
53932;BME280;39844;52.496;13.482;2023-03-04T07:13:47;101414.47;;;4.66;97.77
53932;BME280;39844;52.496;13.482;2023-03-04T07:16:15;101416.25;;;4.67;98.00
53932;BME280;39844;52.496;13.482;2023-03-04T07:18:41;101411.06;;;4.67;98.50
53932;BME280;39844;52.496;13.482;2023-03-04T07:21:07;101412.75;;;4.67;98.53
53932;BME280;39844;52.496;13.482;2023-03-04T07:23:32;101415.31;;;4.65;98.95
53932;BME280;39844;52.496;13.482;2023-03-04T07:25:58;101409.16;;;4.63;99.35
53932;BME280;39844;52.496;13.482;2023-03-04T07:28:23;101422.13;;;4.62;99.83
53932;BME280;39844;52.496;13.482;2023-03-04T07:30:48;101426.41;;;4.60;100.00
53932;BME280;39844;52.496;13.482;2023-03-04T07:33:14;101413.50;;;4.63;100.00
53932;BME280;39844;52.496;13.482;2023-03-04T07:35:39;101414.44;;;4.65;100.00
53932;BME280;39844;52.496;13.482;2023-03-04T07:38:05;101415.34;;;4.67;100.00
53932;BME280;39844;52.496;13.482;2023-03-04T07:40:30;101413.78;;;4.72;100.00
53932;BME280;39844;52.496;13.482;2023-03-04T07:42:56;101415.59;;;4.74;100.00
53932;BME280;39844;52.496;13.482;2023-03-04T07:45:22;101411.41;;;4.79;100.00
53932;BME280;39844;52.496;13.482;2023-03-04T07:47:48;101413.25;;;4.83;100.00
53932;BME280;39844;52.496;13.482;2023-03-04T07:50:13;101407.31;;;4.87;99.91
53932;BME280;39844;52.496;13.482;2023-03-04T07:52:47;101416.94;;;4.90;100.00
53932;BME280;39844;52.496;13.482;2023-03-04T07:55:14;101417.88;;;4.92;100.00
53932;BME280;39844;52.496;13.482;2023-03-04T07:57:40;101408.34;;;4.92;100.00
53932;BME280;39844;52.496;13.482;2023-03-04T08:00:07;101416.19;;;4.94;100.00
53932;BME280;39844;52.496;13.482;2023-03-04T08:02:33;101415.38;;;4.96;100.00
53932;BME280;39844;52.496;13.482;2023-03-04T08:04:58;101405.09;;;4.99;100.00
53932;BME280;39844;52.496;13.482;2023-03-04T08:07:23;101418.19;;;5.02;100.00
53932;BME280;39844;52.496;13.482;2023-03-04T08:09:48;101405.28;;;5.05;100.00
53932;BME280;39844;52.496;13.482;2023-03-04T08:12:14;101410.53;;;5.08;100.00
53932;BME280;39844;52.496;13.482;2023-03-04T08:14:39;101411.50;;;5.10;99.31
53932;BME280;39844;52.496;13.482;2023-03-04T08:17:04;101397.78;;;5.16;99.53
53932;BME280;39844;52.496;13.482;2023-03-04T08:19:30;101400.41;;;5.18;98.09
53932;BME280;39844;52.496;13.482;2023-03-04T08:21:55;101403.03;;;5.19;97.57
53932;BME280;39844;52.496;13.482;2023-03-04T08:24:20;101392.69;;;5.21;97.03
53932;BME280;39844;52.496;13.482;2023-03-04T08:26:47;101398.00;;;5.24;96.00
53932;BME280;39844;52.496;13.482;2023-03-04T08:29:16;101398.91;;;5.26;95.75
53932;BME280;39844;52.496;13.482;2023-03-04T08:31:42;101402.44;;;5.28;95.53
53932;BME280;39844;52.496;13.482;2023-03-04T08:34:08;101392.03;;;5.28;94.29
53932;BME280;39844;52.496;13.482;2023-03-04T08:36:33;101392.91;;;5.28;94.16
53932;BME280;39844;52.496;13.482;2023-03-04T08:38:58;101397.31;;;5.31;93.84
53932;BME280;39844;52.496;13.482;2023-03-04T08:41:24;101392.13;;;5.31;92.20
53932;BME280;39844;52.496;13.482;2023-03-04T08:43:49;101394.75;;;5.32;90.97
53932;BME280;39844;52.496;13.482;2023-03-04T08:46:14;101390.53;;;5.36;90.59
53932;BME280;39844;52.496;13.482;2023-03-04T08:48:39;101390.63;;;5.39;89.32
53932;BME280;39844;52.496;13.482;2023-03-04T08:51:09;101377.72;;;5.43;88.23
53932;BME280;39844;52.496;13.482;2023-03-04T08:53:35;101376.94;;;5.47;87.92
53932;BME280;39844;52.496;13.482;2023-03-04T08:56:01;101376.22;;;5.51;86.83
53932;BME280;39844;52.496;13.482;2023-03-04T08:58:26;101381.47;;;5.54;84.75
53932;BME280;39844;52.496;13.482;2023-03-04T09:00:51;101376.41;;;5.59;83.23
53932;BME280;39844;52.496;13.482;2023-03-04T09:03:17;101367.91;;;5.66;81.92
53932;BME280;39844;52.496;13.482;2023-03-04T09:05:44;101365.44;;;5.72;81.54
53932;BME280;39844;52.496;13.482;2023-03-04T09:08:09;101369.09;;;5.79;81.27
53932;BME280;39844;52.496;13.482;2023-03-04T09:10:35;101365.78;;;5.84;81.29
53932;BME280;39844;52.496;13.482;2023-03-04T09:13:00;101367.66;;;5.88;79.04
53932;BME280;39844;52.496;13.482;2023-03-04T09:15:25;101372.94;;;5.91;78.53
53932;BME280;39844;52.496;13.482;2023-03-04T09:17:51;101380.91;;;5.97;78.10
53932;BME280;39844;52.496;13.482;2023-03-04T09:20:16;101383.66;;;6.03;78.97
53932;BME280;39844;52.496;13.482;2023-03-04T09:22:41;101371.63;;;6.08;77.98
53932;BME280;39844;52.496;13.482;2023-03-04T09:25:08;101380.44;;;6.13;77.65
53932;BME280;39844;52.496;13.482;2023-03-04T09:27:35;101385.75;;;6.18;77.86
53932;BME280;39844;52.496;13.482;2023-03-04T09:30:00;101378.06;;;6.22;77.42
53932;BME280;39844;52.496;13.482;2023-03-04T09:32:25;101379.06;;;6.27;76.65
53932;BME280;39844;52.496;13.482;2023-03-04T09:34:50;101391.16;;;6.25;75.05
53932;BME280;39844;52.496;13.482;2023-03-04T09:37:16;101386.75;;;6.23;74.64
53932;BME280;39844;52.496;13.482;2023-03-04T09:39:41;101387.63;;;6.23;76.37
53932;BME280;39844;52.496;13.482;2023-03-04T09:42:08;101388.50;;;6.22;76.36
53932;BME280;39844;52.496;13.482;2023-03-04T09:44:38;101397.16;;;6.23;75.33
53932;BME280;39844;52.496;13.482;2023-03-04T09:47:10;101392.75;;;6.20;74.49
53932;BME280;39844;52.496;13.482;2023-03-04T09:49:40;101393.66;;;6.21;74.38
53932;BME280;39844;52.496;13.482;2023-03-04T09:52:12;101387.69;;;6.25;74.97
53932;BME280;39844;52.496;13.482;2023-03-04T09:55:04;101392.13;;;6.30;75.47
53932;BME280;39844;52.496;13.482;2023-03-04T09:57:44;101391.34;;;6.33;73.34
53932;BME280;39844;52.496;13.482;2023-03-04T10:00:23;101392.28;;;6.36;73.64
53932;BME280;39844;52.496;13.482;2023-03-04T10:05:32;101386.31;;;6.41;73.38
53932;BME280;39844;52.496;13.482;2023-03-04T10:08:01;101384.63;;;6.43;72.78
53932;BME280;39844;52.496;13.482;2023-03-04T10:10:36;101386.44;;;6.47;72.62
53932;BME280;39844;52.496;13.482;2023-03-04T10:13:03;101384.75;;;6.49;73.24
53932;BME280;39844;52.496;13.482;2023-03-04T10:15:32;101377.88;;;6.51;72.53
53932;BME280;39844;52.496;13.482;2023-03-04T10:18:06;101392.56;;;6.47;72.91
53932;BME280;39844;52.496;13.482;2023-03-04T10:20:49;101392.56;;;6.47;72.90
53932;BME280;39844;52.496;13.482;2023-03-04T10:23:21;101388.34;;;6.54;72.54
53932;BME280;39844;52.496;13.482;2023-03-04T10:25:46;101374.50;;;6.56;72.60
53932;BME280;39844;52.496;13.482;2023-03-04T10:28:16;101384.16;;;6.60;73.18
53932;BME280;39844;52.496;13.482;2023-03-04T10:33:20;101381.47;;;6.57;71.41
53932;BME280;39844;52.496;13.482;2023-03-04T10:35:50;101384.91;;;6.55;71.35
53932;BME280;39844;52.496;13.482;2023-03-04T10:38:19;101386.69;;;6.57;70.85
53932;BME280;39844;52.496;13.482;2023-03-04T10:40:45;101372.88;;;6.61;71.53
53932;BME280;39844;52.496;13.482;2023-03-04T10:43:19;101375.59;;;6.66;70.65
53932;BME280;39844;52.496;13.482;2023-03-04T10:45:46;101383.44;;;6.67;71.03
53932;BME280;39844;52.496;13.482;2023-03-04T10:48:20;101362.56;;;6.66;70.54
53932;BME280;39844;52.496;13.482;2023-03-04T10:50:46;101378.31;;;6.72;71.50
53932;BME280;39844;52.496;13.482;2023-03-04T10:55:51;101374.00;;;6.72;68.34
53932;BME280;39844;52.496;13.482;2023-03-04T10:58:17;101374.00;;;6.72;67.23
53932;BME280;39844;52.496;13.482;2023-03-04T11:00:42;101378.25;;;6.69;67.13
53932;BME280;39844;52.496;13.482;2023-03-04T11:05:46;101372.94;;;6.64;65.58
53932;BME280;39844;52.496;13.482;2023-03-04T11:08:20;101380.81;;;6.66;66.33
53932;BME280;39844;52.496;13.482;2023-03-04T11:10:46;101395.59;;;6.67;65.81
53932;BME280;39844;52.496;13.482;2023-03-04T11:13:19;101386.94;;;6.68;65.63
53932;BME280;39844;52.496;13.482;2023-03-04T11:16:04;101384.28;;;6.66;64.43
53932;BME280;39844;52.496;13.482;2023-03-04T11:18:49;101394.72;;;6.66;66.22
53932;BME280;39844;52.496;13.482;2023-03-04T11:21:19;101386.91;;;6.66;65.48
53932;BME280;39844;52.496;13.482;2023-03-04T11:26:16;101386.97;;;6.69;65.18
53932;BME280;39844;52.496;13.482;2023-03-04T11:31:15;101385.56;;;6.85;65.62
53932;BME280;39844;52.496;13.482;2023-03-04T11:34:23;101389.25;;;6.93;65.24
53932;BME280;39844;52.496;13.482;2023-03-04T11:39:48;101383.22;;;6.97;65.16
53932;BME280;39844;52.496;13.482;2023-03-04T11:45:04;101400.75;;;7.03;64.14
53932;BME280;39844;52.496;13.482;2023-03-04T12:14:43;101396.59;;;6.72;61.68
53932;BME280;39844;52.496;13.482;2023-03-04T12:20:28;101386.94;;;6.68;61.76
53932;BME280;39844;52.496;13.482;2023-03-04T12:33:27;101381.84;;;6.74;61.27
53932;BME280;39844;52.496;13.482;2023-03-04T12:38:58;101382.22;;;6.89;59.93
53932;BME280;39844;52.496;13.482;2023-03-04T12:41:29;101389.09;;;6.87;59.68
53932;BME280;39844;52.496;13.482;2023-03-04T12:44:20;101382.28;;;6.93;59.46
53932;BME280;39844;52.496;13.482;2023-03-04T12:46:56;101373.50;;;6.90;59.60
53932;BME280;39844;52.496;13.482;2023-03-04T12:52:15;101389.81;;;6.80;58.27
53932;BME280;39844;52.496;13.482;2023-03-04T12:54:51;101388.84;;;6.75;56.91
53932;BME280;39844;52.496;13.482;2023-03-04T12:57:24;101388.03;;;6.77;57.84
53932;BME280;39844;52.496;13.482;2023-03-04T13:05:41;101386.47;;;6.87;56.41
53932;BME280;39844;52.496;13.482;2023-03-04T13:10:46;101382.13;;;6.86;57.29
53932;BME280;39844;52.496;13.482;2023-03-04T13:16:06;101375.22;;;6.88;55.73
53932;BME280;39844;52.496;13.482;2023-03-04T13:18:47;101392.69;;;6.92;55.80
53932;BME280;39844;52.496;13.482;2023-03-04T13:23:38;101382.25;;;6.92;55.25
53932;BME280;39844;52.496;13.482;2023-03-04T13:28:43;101387.34;;;6.86;55.90
53932;BME280;39844;52.496;13.482;2023-03-04T13:36:02;101389.03;;;6.84;57.14
53932;BME280;39844;52.496;13.482;2023-03-04T13:41:12;101388.97;;;6.81;56.16
53932;BME280;39844;52.496;13.482;2023-03-04T13:56:27;101388.69;;;6.69;56.25
53932;BME280;39844;52.496;13.482;2023-03-04T14:04:37;101388.41;;;6.57;56.72
53932;BME280;39844;52.496;13.482;2023-03-04T14:07:20;101397.09;;;6.56;56.28
53932;BME280;39844;52.496;13.482;2023-03-04T14:10:05;101383.13;;;6.54;55.70
53932;BME280;39844;52.496;13.482;2023-03-04T14:12:34;101377.88;;;6.51;55.55
53932;BME280;39844;52.496;13.482;2023-03-04T14:15:04;101382.19;;;6.50;55.34
53932;BME280;39844;52.496;13.482;2023-03-04T14:17:33;101377.78;;;6.48;56.08
53932;BME280;39844;52.496;13.482;2023-03-04T14:19:59;101378.69;;;6.48;56.59
53932;BME280;39844;52.496;13.482;2023-03-04T14:22:28;101378.63;;;6.47;56.00
53932;BME280;39844;52.496;13.482;2023-03-04T14:27:20;101382.84;;;6.42;56.92
53932;BME280;39844;52.496;13.482;2023-03-04T14:29:54;101380.16;;;6.38;57.19
53932;BME280;39844;52.496;13.482;2023-03-04T14:32:19;101382.75;;;6.37;57.14
53932;BME280;39844;52.496;13.482;2023-03-04T14:34:49;101372.31;;;6.35;56.93
53932;BME280;39844;52.496;13.482;2023-03-04T14:37:24;101381.88;;;6.36;56.65
53932;BME280;39844;52.496;13.482;2023-03-04T14:39:55;101383.53;;;6.33;56.90
53932;BME280;39844;52.496;13.482;2023-03-04T14:42:24;101378.31;;;6.33;57.59
53932;BME280;39844;52.496;13.482;2023-03-04T14:44:54;101381.72;;;6.30;57.91
53932;BME280;39844;52.496;13.482;2023-03-04T14:47:39;101380.78;;;6.28;58.93
53932;BME280;39844;52.496;13.482;2023-03-04T14:50:09;101386.88;;;6.27;58.76
53932;BME280;39844;52.496;13.482;2023-03-04T14:52:39;101379.78;;;6.22;58.52